Time;durP1;ratioP1;P1;durP2;ratioP2;P2;SDS_P1;SDS_P2;PMS_P1;PMS_P2;Temp;Humidity;BMP_temperature;BMP_pressure;BME280_temperature;BME280_humidity;BME280_pressure;Samples;Min_cycle;Max_cycle;Signal;HPM_P1;HPM_P2
2022/11/22 00:01:45;;;;;;;0.00;0.00;;;;;;;5.71;78.96;98003.41;7360892;19;20050;-58
2022/11/22 00:04:11;;;;;;;0.00;0.00;;;;;;;5.69;78.98;98003.47;7361898;19;20460;-59
2022/11/22 00:06:36;;;;;;;0.00;0.00;;;;;;;5.68;79.03;98008.72;7362183;19;20010;-59
2022/11/22 00:09:01;;;;;;;0.10;0.10;;;;;;;5.65;78.83;98011.44;7360842;19;20007;-58
2022/11/22 00:11:27;;;;;;;0.00;0.00;;;;;;;5.61;79.19;98010.75;7360074;19;20366;-58
2022/11/22 00:13:52;;;;;;;0.10;0.10;;;;;;;5.60;78.78;98003.06;7361771;19;20023;-59
2022/11/22 00:16:18;;;;;;;0.08;0.08;;;;;;;5.60;79.04;98005.66;7362502;19;20118;-57
2022/11/22 00:18:43;;;;;;;0.00;0.00;;;;;;;5.59;78.87;98007.41;7361140;19;20006;-59
2022/11/22 00:21:09;;;;;;;0.10;0.10;;;;;;;5.58;78.94;98010.06;7362960;19;20110;-59
2022/11/22 00:23:34;;;;;;;0.00;0.00;;;;;;;5.57;79.21;98003.19;7358329;19;20456;-59
2022/11/22 00:25:59;;;;;;;0.00;0.00;;;;;;;5.57;79.27;98008.34;7361005;19;20017;-59
2022/11/22 00:28:25;;;;;;;0.10;0.10;;;;;;;5.55;79.11;97999.84;7362299;19;20010;-60
2022/11/22 00:30:50;;;;;;;0.00;0.00;;;;;;;5.56;79.09;97997.16;7362376;19;20025;-59
2022/11/22 00:33:16;;;;;;;0.10;0.10;;;;;;;5.56;79.37;97991.16;7359486;19;20003;-58
2022/11/22 00:35:43;;;;;;;0.10;0.10;;;;;;;5.56;79.16;97996.34;7360135;19;20618;-59
2022/11/22 00:38:08;;;;;;;0.00;0.00;;;;;;;5.56;78.93;97996.34;7362450;19;20048;-58
2022/11/22 00:40:34;;;;;;;0.00;0.00;;;;;;;5.56;79.05;97992.00;7362148;19;20077;-58
2022/11/22 00:42:59;;;;;;;0.00;0.00;;;;;;;5.55;79.04;97987.72;7359013;19;20014;-58
2022/11/22 00:45:25;;;;;;;0.10;0.10;;;;;;;5.55;79.19;97982.56;7362368;19;20006;-59
2022/11/22 00:47:50;;;;;;;0.10;0.10;;;;;;;5.55;79.21;97986.91;7360067;19;20466;-60
2022/11/22 00:50:16;;;;;;;0.03;0.03;;;;;;;5.54;79.19;97982.63;7361913;19;20010;-58
2022/11/22 00:52:41;;;;;;;0.10;0.10;;;;;;;5.52;79.36;97974.06;7357973;19;20019;-57
2022/11/22 00:55:07;;;;;;;0.00;0.00;;;;;;;5.43;78.99;97971.03;7356946;19;20022;-58
2022/11/22 00:57:32;;;;;;;0.00;0.00;;;;;;;5.48;79.27;97981.16;7361121;19;20021;-58
2022/11/22 00:59:58;;;;;;;0.10;0.10;;;;;;;5.43;78.94;97976.19;7359373;19;20015;-59
2022/11/22 01:02:23;;;;;;;0.10;0.10;;;;;;;5.09;78.83;97929.47;7358401;19;20037;-58
2022/11/22 01:04:48;;;;;;;0.00;0.00;;;;;;;5.42;78.86;97978.84;7359642;19;20014;-58
2022/11/22 01:07:14;;;;;;;0.10;0.10;;;;;;;5.39;78.78;97979.81;7356456;19;22690;-58
2022/11/22 01:09:39;;;;;;;0.10;0.10;;;;;;;5.37;79.02;97976.47;7358044;19;20006;-58
2022/11/22 01:12:06;;;;;;;0.10;0.10;;;;;;;5.29;78.98;97973.38;7359499;19;20009;-58
2022/11/22 01:14:31;;;;;;;0.10;0.10;;;;;;;5.33;79.03;97981.88;7359441;19;20585;-57
2022/11/22 01:16:56;;;;;;;0.00;0.00;;;;;;;5.30;79.21;97980.22;7360956;19;20015;-58
2022/11/22 01:19:22;;;;;;;0.10;0.10;;;;;;;5.27;79.02;97979.53;7361277;19;20013;-59
2022/11/22 01:21:47;;;;;;;0.10;0.10;;;;;;;5.25;78.91;97982.19;7359275;19;20002;-59
2022/11/22 01:24:13;;;;;;;0.10;0.10;;;;;;;5.24;78.83;97982.28;7358089;19;20025;-59
2022/11/22 01:26:38;;;;;;;0.10;0.10;;;;;;;5.20;79.01;97968.63;7357207;19;20041;-59
2022/11/22 01:29:04;;;;;;;0.10;0.10;;;;;;;5.18;79.02;97966.13;7359659;19;20011;-58
2022/11/22 01:31:29;;;;;;;0.10;0.10;;;;;;;5.14;79.11;97979.25;7359505;19;20753;-59
2022/11/22 01:33:56;;;;;;;0.00;0.00;;;;;;;5.12;79.15;97975.88;7358621;19;20860;-59
2022/11/22 01:36:21;;;;;;;0.00;0.00;;;;;;;4.97;79.23;97955.84;7357249;19;20027;-59
2022/11/22 01:38:46;;;;;;;0.10;0.10;;;;;;;5.10;79.12;97980.28;7357190;19;20015;-58
2022/11/22 01:41:12;;;;;;;0.03;0.03;;;;;;;5.09;79.35;97968.25;7355830;19;20014;-58
2022/11/22 01:43:38;;;;;;;0.10;0.10;;;;;;;5.07;78.91;97967.47;7358946;19;20537;-58
2022/11/22 01:46:08;;;;;;;0.00;0.00;;;;;;;5.06;78.94;97970.97;7360587;19;20109;-59
2022/11/22 01:48:50;;;;;;;0.00;0.00;;;;;;;4.98;78.91;97957.56;7359976;19;20034;-59
2022/11/22 01:51:33;;;;;;;0.00;0.00;;;;;;;4.97;78.88;97958.44;7358095;19;20497;-58
2022/11/22 01:54:04;;;;;;;0.00;0.00;;;;;;;4.99;79.20;97974.75;7360115;19;20011;-58
2022/11/22 01:56:31;;;;;;;0.10;0.10;;;;;;;4.97;79.16;97972.25;7358598;19;20789;-57
2022/11/22 01:59:01;;;;;;;0.10;0.10;;;;;;;4.94;79.36;97974.94;7363713;19;20110;-59
2022/11/22 02:01:27;;;;;;;0.10;0.10;;;;;;;4.90;79.14;97974.22;7365022;19;20023;-58
2022/11/22 02:03:55;;;;;;;0.10;0.10;;;;;;;4.91;78.76;97981.06;7365049;19;20011;-59
2022/11/22 02:06:22;;;;;;;0.10;0.10;;;;;;;4.90;79.18;97989.75;7361927;19;21245;-57
2022/11/22 02:08:58;;;;;;;0.10;0.10;;;;;;;4.90;79.19;97992.34;7366605;19;21202;-59
2022/11/22 02:11:26;;;;;;;0.10;0.10;;;;;;;4.89;79.38;97990.66;7364070;19;20040;-58
2022/11/22 02:13:52;;;;;;;0.10;0.10;;;;;;;4.88;79.48;97983.81;7365543;19;20026;-58
2022/11/22 02:16:18;;;;;;;0.08;0.08;;;;;;;4.90;79.70;97987.16;7366901;19;20011;-58
2022/11/22 02:18:43;;;;;;;0.00;0.00;;;;;;;4.90;79.36;97988.91;7364835;19;20006;-58
2022/11/22 02:21:09;;;;;;;0.00;0.00;;;;;;;4.92;79.53;97992.28;7364478;19;20599;-58
2022/11/22 02:23:48;;;;;;;0.10;0.10;;;;;;;4.94;79.46;97993.88;7360678;19;20014;-59
2022/11/22 02:26:13;;;;;;;0.00;0.00;;;;;;;4.91;79.86;97991.41;7364157;19;20611;-59
2022/11/22 02:28:39;;;;;;;0.00;0.00;;;;;;;4.97;79.64;97995.50;7365023;19;20011;-59
2022/11/22 02:31:05;;;;;;;0.10;0.10;;;;;;;5.00;79.12;97997.94;7364783;19;20002;-59
2022/11/22 02:33:30;;;;;;;0.00;0.00;;;;;;;5.01;79.64;98009.97;7363642;19;20007;-57
2022/11/22 02:35:56;;;;;;;0.00;0.00;;;;;;;5.03;79.62;98012.50;7365298;19;20014;-58
2022/11/22 02:38:25;;;;;;;0.00;0.00;;;;;;;4.99;79.34;98013.53;7363646;19;20011;-58
2022/11/22 02:40:59;;;;;;;0.10;0.10;;;;;;;5.07;79.43;98020.06;7362009;19;20022;-59
2022/11/22 02:43:31;;;;;;;0.10;0.10;;;;;;;5.09;79.70;98022.59;7363301;19;20626;-58
2022/11/22 02:46:05;;;;;;;0.00;0.00;;;;;;;4.99;79.79;98000.63;7364967;19;20607;-58
2022/11/22 02:48:30;;;;;;;0.00;0.00;;;;;;;5.11;79.43;98015.59;7363323;19;20015;-59
2022/11/22 02:50:56;;;;;;;0.03;0.03;;;;;;;5.10;79.36;98016.50;7364852;19;27044;-58
2022/11/22 02:53:21;;;;;;;0.00;0.00;;;;;;;5.12;79.70;98014.66;7363944;19;20399;-57
2022/11/22 02:55:46;;;;;;;0.10;0.10;;;;;;;5.13;79.59;98013.78;7363408;19;20757;-58
2022/11/22 02:58:12;;;;;;;0.10;0.10;;;;;;;5.13;79.17;98024.13;7354097;19;20034;-58
2022/11/22 03:00:38;;;;;;;0.00;0.00;;;;;;;5.13;79.56;98018.97;7365874;19;20338;-57
2022/11/22 03:03:04;;;;;;;0.00;0.00;;;;;;;5.12;79.60;98020.72;7364091;19;20022;-58
2022/11/22 03:05:29;;;;;;;0.00;0.00;;;;;;;5.06;79.19;98009.78;7364060;19;20018;-57
2022/11/22 03:07:54;;;;;;;0.00;0.00;;;;;;;5.02;79.26;97997.88;7364462;19;20152;-59
2022/11/22 03:10:20;;;;;;;0.10;0.10;;;;;;;5.10;79.04;98012.16;7363042;19;20082;-59
2022/11/22 03:12:45;;;;;;;0.00;0.00;;;;;;;5.10;79.08;98016.50;7362690;19;21104;-58
2022/11/22 03:15:11;;;;;;;0.10;0.10;;;;;;;5.07;79.19;98016.63;7361235;19;20014;-58
2022/11/22 03:17:36;;;;;;;0.00;0.00;;;;;;;4.92;79.33;97990.53;7364692;19;20913;-58
2022/11/22 03:20:03;;;;;;;0.00;0.00;;;;;;;5.03;79.01;98015.09;7364693;19;20020;-58
2022/11/22 03:22:28;;;;;;;0.00;0.00;;;;;;;5.01;79.20;98014.31;7362771;19;20376;-57
2022/11/22 03:24:53;;;;;;;0.08;0.08;;;;;;;4.98;79.22;98029.97;7364235;19;20006;-58
2022/11/22 03:27:19;;;;;;;0.00;0.00;;;;;;;4.95;78.96;98016.25;7363036;19;20014;-58
2022/11/22 03:29:44;;;;;;;0.08;0.08;;;;;;;4.93;79.21;98022.41;7361767;19;20007;-59
2022/11/22 03:32:10;;;;;;;0.00;0.00;;;;;;;4.89;79.18;98021.69;7363772;19;20011;-59
2022/11/22 03:34:35;;;;;;;0.05;0.05;;;;;;;4.88;79.29;98020.00;7363604;19;20037;-59
2022/11/22 03:37:00;;;;;;;0.00;0.00;;;;;;;4.85;78.86;98025.31;7363954;19;20754;-58
2022/11/22 03:39:26;;;;;;;0.00;0.00;;;;;;;4.83;79.07;98036.63;7363944;19;20014;-57
2022/11/22 03:41:54;;;;;;;0.00;0.00;;;;;;;4.81;79.23;98028.06;7362790;19;20392;-59
2022/11/22 03:44:19;;;;;;;0.00;0.00;;;;;;;4.76;78.60;98024.84;7364506;19;20011;-58
2022/11/22 03:46:45;;;;;;;0.10;0.10;;;;;;;4.76;79.01;98036.03;7362337;19;20012;-59
2022/11/22 03:49:10;;;;;;;0.10;0.10;;;;;;;4.74;78.75;98037.00;7363632;19;20011;-58
2022/11/22 03:51:36;;;;;;;0.10;0.10;;;;;;;4.71;79.06;98042.28;7363529;19;20027;-58
2022/11/22 03:54:01;;;;;;;0.00;0.00;;;;;;;4.67;79.05;98046.78;7361554;19;20011;-59
2022/11/22 03:56:27;;;;;;;0.10;0.10;;;;;;;4.66;78.81;98051.09;7363816;19;20785;-58
2022/11/22 03:58:52;;;;;;;0.00;0.00;;;;;;;4.64;78.93;98057.22;7363362;19;20010;-57
2022/11/22 04:01:17;;;;;;;0.10;0.10;;;;;;;4.55;79.01;98035.19;7364202;19;20013;-58
2022/11/22 04:03:43;;;;;;;0.10;0.10;;;;;;;4.59;79.23;98051.41;7357467;19;20006;-58
2022/11/22 04:06:08;;;;;;;0.00;0.00;;;;;;;4.55;78.94;98057.59;7357948;19;20476;-57
2022/11/22 04:08:34;;;;;;;0.00;0.00;;;;;;;4.53;78.67;98064.59;7361695;19;20018;-58
2022/11/22 04:10:59;;;;;;;0.10;0.10;;;;;;;4.44;79.15;98050.28;7363408;19;20120;-58
2022/11/22 04:15:05;;;;;;;0.10;0.10;;;;;;;4.47;78.77;98059.66;7362289;19;20032;-59
2022/11/22 04:16:10;;;;;;;0.10;0.10;;;;;;;4.43;78.81;98070.13;7363562;19;20312;-59
2022/11/22 04:18:35;;;;;;;0.00;0.00;;;;;;;4.40;78.79;98067.66;7359622;19;20841;-58
2022/11/22 04:25:12;;;;;;;0.10;0.10;;;;;;;4.31;79.00;98074.91;7354480;19;20033;-59
2022/11/22 04:26:30;;;;;;;0.00;0.00;;;;;;;4.33;78.80;98099.81;7355647;19;20006;-58
2022/11/22 04:28:56;;;;;;;0.10;0.10;;;;;;;4.31;78.96;98101.63;7356494;19;22395;-57
2022/11/22 04:34:05;;;;;;;0.00;0.00;;;;;;;4.27;78.99;98100.03;7359529;19;20023;-58
2022/11/22 04:36:31;;;;;;;0.00;0.00;;;;;;;4.25;79.35;98094.09;7359460;19;20054;-58
2022/11/22 04:38:56;;;;;;;0.10;0.10;;;;;;;4.27;79.49;98094.88;7356858;19;20018;-57
2022/11/22 04:41:22;;;;;;;0.10;0.10;;;;;;;4.26;79.52;98082.88;7358888;19;20021;-58
2022/11/22 04:46:31;;;;;;;0.00;0.00;;;;;;;4.30;79.16;98089.56;7359514;19;20476;-56
2022/11/22 04:48:56;;;;;;;0.00;0.00;;;;;;;4.19;79.53;98091.75;7361118;19;22024;-57
2022/11/22 04:54:06;;;;;;;0.00;0.00;;;;;;;4.27;79.45;98114.72;7359773;19;20017;-59
2022/11/22 04:56:31;;;;;;;0.00;0.00;;;;;;;4.28;78.99;98113.81;7361107;19;20026;-59
2022/11/22 04:58:56;;;;;;;0.00;0.00;;;;;;;4.23;79.37;98119.16;7360927;19;20018;-56
2022/11/22 05:01:22;;;;;;;0.10;0.10;;;;;;;4.25;78.89;98122.50;7361677;19;20010;-57
2022/11/22 05:03:47;;;;;;;0.03;0.03;;;;;;;4.22;79.34;98132.97;7359474;19;20054;-59
2022/11/22 05:06:13;;;;;;;0.05;0.05;;;;;;;4.21;79.00;98141.63;7361886;19;20034;-56
2022/11/22 05:08:39;;;;;;;0.10;0.10;;;;;;;4.19;79.10;98148.56;7360439;19;20871;-58
2022/11/22 05:11:04;;;;;;;0.10;0.10;;;;;;;4.18;79.21;98146.88;7359002;19;20093;-57
2022/11/22 05:13:35;;;;;;;0.00;0.00;;;;;;;3.86;78.97;98099.88;7359250;19;20821;-57
2022/11/22 05:16:03;;;;;;;0.00;0.00;;;;;;;4.15;78.82;98152.16;7359300;19;20037;-59
2022/11/22 05:18:29;;;;;;;0.10;0.10;;;;;;;4.13;79.09;98157.38;7356720;19;20011;-59
2022/11/22 05:20:55;;;;;;;0.00;0.00;;;;;;;4.12;79.13;98157.47;7358624;19;20070;-58
2022/11/22 05:26:06;;;;;;;0.00;0.00;;;;;;;4.10;78.93;98172.16;7360343;19;20086;-59
2022/11/22 05:28:33;;;;;;;0.00;0.00;;;;;;;4.08;78.99;98171.38;7359226;19;25577;-59
2022/11/22 05:31:21;;;;;;;0.00;0.00;;;;;;;3.95;79.01;98163.22;7363280;19;20010;-59
2022/11/22 05:33:48;;;;;;;0.00;0.00;;;;;;;3.99;78.77;98166.53;7364598;19;20010;-58
2022/11/22 05:36:14;;;;;;;0.05;0.05;;;;;;;4.04;78.88;98174.97;7366078;19;20595;-57
2022/11/22 05:38:40;;;;;;;0.10;0.10;;;;;;;4.02;79.19;98187.94;7366632;19;20034;-57
2022/11/22 05:41:10;;;;;;;0.00;0.00;;;;;;;4.00;78.87;98188.88;7367463;19;20014;-57
2022/11/22 05:43:36;;;;;;;0.00;0.00;;;;;;;3.99;78.69;98194.94;7363889;19;20054;-59
2022/11/22 05:46:05;;;;;;;0.00;0.00;;;;;;;3.99;78.38;98197.53;7367937;19;20119;-59
2022/11/22 05:48:30;;;;;;;0.00;0.00;;;;;;;3.96;78.52;98193.34;7361389;19;20018;-59
2022/11/22 05:50:56;;;;;;;0.00;0.00;;;;;;;3.95;78.60;98195.94;7365959;19;21006;-58
2022/11/22 05:53:21;;;;;;;0.03;0.03;;;;;;;3.93;78.53;98200.34;7364508;19;20007;-57
2022/11/22 05:55:46;;;;;;;0.10;0.10;;;;;;;3.80;78.63;98179.28;7367233;19;20010;-59
2022/11/22 05:58:12;;;;;;;0.10;0.10;;;;;;;3.88;78.87;98196.19;7361370;19;20721;-58
2022/11/22 06:00:37;;;;;;;0.10;0.10;;;;;;;3.86;78.51;98203.16;7366508;19;20006;-59
2022/11/22 06:03:03;;;;;;;0.10;0.10;;;;;;;3.82;78.67;98201.56;7363451;19;20462;-58
2022/11/22 06:05:29;;;;;;;0.10;0.10;;;;;;;3.80;78.91;98208.53;7367607;19;20022;-59
2022/11/22 06:08:01;;;;;;;0.10;0.10;;;;;;;3.81;78.76;98215.38;7362607;19;20367;-58
2022/11/22 06:10:27;;;;;;;0.00;0.00;;;;;;;3.79;78.68;98222.31;7366699;19;20003;-59
2022/11/22 06:12:53;;;;;;;0.08;0.08;;;;;;;3.61;79.28;98181.69;7364801;19;20759;-58
2022/11/22 06:15:19;;;;;;;0.00;0.00;;;;;;;3.60;79.23;98180.84;7364124;19;20022;-58
2022/11/22 06:17:44;;;;;;;0.05;0.05;;;;;;;3.74;78.91;98203.56;7363446;19;20025;-58
2022/11/22 06:20:10;;;;;;;0.00;0.00;;;;;;;3.73;78.76;98208.78;7363883;19;20007;-58
2022/11/22 06:22:36;;;;;;;0.00;0.00;;;;;;;3.70;78.95;98209.75;7365372;19;20010;-58
2022/11/22 06:25:01;;;;;;;0.00;0.00;;;;;;;3.70;78.68;98217.50;7363066;19;20007;-59
2022/11/22 06:27:26;;;;;;;0.00;0.00;;;;;;;3.66;79.05;98215.91;7365183;19;20018;-58
2022/11/22 06:29:52;;;;;;;0.00;0.00;;;;;;;3.67;79.05;98217.59;7364357;19;20487;-58
2022/11/22 06:32:17;;;;;;;0.00;0.00;;;;;;;3.65;78.86;98232.28;7364773;19;20021;-59
2022/11/22 06:34:43;;;;;;;0.10;0.10;;;;;;;3.59;79.14;98232.47;7362323;19;20010;-57
2022/11/22 06:37:08;;;;;;;0.10;0.10;;;;;;;3.60;78.99;98236.78;7365711;19;20454;-55
2022/11/22 06:39:34;;;;;;;0.00;0.00;;;;;;;3.61;79.06;98238.44;7363526;19;20023;-58
2022/11/22 06:41:59;;;;;;;0.00;0.00;;;;;;;3.60;79.04;98240.19;7363686;19;20022;-58
2022/11/22 06:44:25;;;;;;;0.08;0.08;;;;;;;3.59;79.10;98242.81;7364304;19;20038;-59
2022/11/22 06:46:50;;;;;;;0.00;0.00;;;;;;;3.62;78.88;98253.03;7364336;19;20042;-58
2022/11/22 06:49:16;;;;;;;0.00;0.00;;;;;;;3.61;79.15;98238.44;7363700;19;20006;-59
2022/11/22 06:51:41;;;;;;;0.00;0.00;;;;;;;3.66;79.09;98251.19;7365431;19;20460;-59
2022/11/22 06:54:10;;;;;;;0.00;0.00;;;;;;;3.68;79.24;98255.41;7363057;19;20070;-59
2022/11/22 06:56:37;;;;;;;0.00;0.00;;;;;;;3.72;79.54;98258.72;7364016;19;20026;-57
2022/11/22 06:59:04;;;;;;;0.05;0.05;;;;;;;3.75;79.79;98267.22;7357035;19;20359;-58
2022/11/22 07:01:30;;;;;;;0.03;0.03;;;;;;;3.79;79.85;98268.78;7364653;19;20010;-58
2022/11/22 07:03:56;;;;;;;0.00;0.00;;;;;;;3.83;79.33;98270.34;7361685;19;20082;-58
2022/11/22 07:06:24;;;;;;;0.00;0.00;;;;;;;3.87;79.31;98265.94;7351125;19;20021;-58
2022/11/22 07:08:50;;;;;;;0.10;0.10;;;;;;;3.93;79.20;98270.03;7362291;19;20026;-57
2022/11/22 07:11:21;;;;;;;0.10;0.10;;;;;;;4.00;79.31;98274.09;7367029;19;20010;-58
2022/11/22 07:13:47;;;;;;;0.00;0.00;;;;;;;4.05;79.27;98274.78;7360003;19;20006;-58
2022/11/22 07:16:16;;;;;;;0.00;0.00;;;;;;;4.11;79.15;98284.91;7362816;19;20041;-55
2022/11/22 07:18:41;;;;;;;0.00;0.00;;;;;;;4.14;79.19;98287.38;7367442;19;20022;-59
2022/11/22 07:21:10;;;;;;;0.10;0.10;;;;;;;4.18;79.35;98291.53;7365359;19;20014;-58
2022/11/22 07:23:37;;;;;;;0.03;0.03;;;;;;;4.24;78.99;98295.63;7364109;19;20386;-58
2022/11/22 07:26:03;;;;;;;0.10;0.10;;;;;;;4.26;79.38;98305.03;7365221;19;20024;-57
2022/11/22 07:28:28;;;;;;;0.00;0.00;;;;;;;4.30;79.22;98311.75;7360274;19;20042;-58
2022/11/22 07:30:59;;;;;;;0.00;0.00;;;;;;;4.36;79.08;98311.56;7363982;19;20018;-59
2022/11/22 07:33:24;;;;;;;0.00;0.00;;;;;;;4.39;79.25;98316.59;7363649;19;20006;-58
2022/11/22 07:35:49;;;;;;;0.08;0.08;;;;;;;4.43;79.15;98315.59;7363928;19;20037;-58
2022/11/22 07:38:15;;;;;;;0.10;0.10;;;;;;;4.48;79.54;98319.75;7362267;19;20014;-58
2022/11/22 07:40:40;;;;;;;0.10;0.10;;;;;;;4.53;79.30;98320.44;7363519;19;20037;-58
2022/11/22 07:43:06;;;;;;;0.10;0.10;;;;;;;4.56;79.05;98317.72;7362264;19;20011;-58
2022/11/22 07:45:31;;;;;;;0.10;0.10;;;;;;;4.61;79.22;98326.16;7364244;19;20014;-58
2022/11/22 07:47:59;;;;;;;0.00;0.00;;;;;;;4.67;79.40;98336.28;7363838;19;20478;-55
2022/11/22 07:50:24;;;;;;;0.00;0.00;;;;;;;4.70;79.55;98336.16;7361920;19;21328;-57
2022/11/22 07:53:00;;;;;;;0.00;0.00;;;;;;;4.78;79.18;98333.31;7363905;19;20078;-59
2022/11/22 07:55:26;;;;;;;0.10;0.10;;;;;;;4.78;79.29;98326.38;7359904;19;20014;-58
2022/11/22 07:57:57;;;;;;;0.00;0.00;;;;;;;4.87;79.23;98330.38;7361531;19;20118;-58
2022/11/22 08:00:23;;;;;;;0.00;0.00;;;;;;;4.89;79.26;98337.16;7352489;19;20467;-57
2022/11/22 08:02:48;;;;;;;0.00;0.00;;;;;;;4.94;79.19;98342.16;7356624;19;20097;-58
2022/11/22 08:05:13;;;;;;;0.10;0.10;;;;;;;4.87;79.49;98323.47;7353301;19;20026;-58
2022/11/22 08:07:44;;;;;;;0.00;0.00;;;;;;;5.03;79.13;98344.41;7355969;19;20017;-57
2022/11/22 08:10:10;;;;;;;0.00;0.00;;;;;;;5.05;79.00;98352.09;7358046;19;20006;-59
2022/11/22 08:12:35;;;;;;;0.00;0.00;;;;;;;5.05;79.13;98344.34;7356172;19;21038;-57
2022/11/22 08:15:01;;;;;;;0.10;0.10;;;;;;;5.12;79.41;98348.38;7357129;19;20014;-58
2022/11/22 08:17:26;;;;;;;0.00;0.00;;;;;;;5.14;79.31;98351.75;7357816;19;20011;-58
2022/11/22 08:19:52;;;;;;;0.10;0.10;;;;;;;5.17;79.44;98354.19;7357300;19;20010;-58
2022/11/22 08:22:18;;;;;;;0.05;0.05;;;;;;;5.16;79.21;98361.13;7357588;19;20862;-58
2022/11/22 08:24:43;;;;;;;0.00;0.00;;;;;;;5.17;79.12;98356.78;7354121;19;20006;-58
2022/11/22 08:27:08;;;;;;;0.00;0.00;;;;;;;5.18;79.32;98363.69;7358522;19;20195;-59
2022/11/22 08:29:34;;;;;;;0.00;0.00;;;;;;;5.17;78.82;98369.72;7356432;19;20552;-58
2022/11/22 08:31:59;;;;;;;0.10;0.10;;;;;;;5.19;79.20;98378.28;7354118;19;20002;-59
2022/11/22 08:34:25;;;;;;;0.08;0.08;;;;;;;5.19;78.85;98386.06;7356127;19;20105;-58
2022/11/22 08:36:50;;;;;;;0.00;0.00;;;;;;;5.16;78.67;98378.41;7356657;19;20973;-59
2022/11/22 08:39:15;;;;;;;0.00;0.00;;;;;;;5.18;79.08;98395.56;7356892;19;20014;-57
2022/11/22 08:41:41;;;;;;;0.10;0.10;;;;;;;5.17;79.21;98393.00;7353953;19;20817;-58
2022/11/22 08:44:06;;;;;;;0.10;0.10;;;;;;;5.20;78.96;98396.34;7356795;19;20014;-58
2022/11/22 08:46:31;;;;;;;0.10;0.10;;;;;;;5.21;79.22;98399.75;7355571;19;20002;-59
2022/11/22 08:48:57;;;;;;;0.00;0.00;;;;;;;5.24;79.05;98412.59;7355111;19;20030;-59
2022/11/22 08:51:22;;;;;;;0.10;0.10;;;;;;;5.26;79.05;98408.19;7354712;19;20074;-59
2022/11/22 08:53:48;;;;;;;0.10;0.10;;;;;;;5.29;79.52;98402.91;7355201;19;20014;-59
2022/11/22 08:56:15;;;;;;;0.10;0.10;;;;;;;5.34;79.38;98400.16;7355752;19;20041;-58
2022/11/22 08:58:41;;;;;;;0.10;0.10;;;;;;;5.37;78.92;98395.72;7356156;19;20031;-58
2022/11/22 09:01:12;;;;;;;0.00;0.00;;;;;;;5.38;78.98;98388.78;7356150;19;20509;-58
2022/11/22 09:03:38;;;;;;;0.10;0.10;;;;;;;5.45;79.33;98401.41;7353354;19;20030;-57
2022/11/22 09:06:07;;;;;;;0.00;0.00;;;;;;;5.50;79.02;98411.59;7354955;19;20798;-57
2022/11/22 09:08:33;;;;;;;0.10;0.10;;;;;;;5.56;79.39;98400.16;7355634;19;20066;-58
2022/11/22 09:11:01;;;;;;;0.08;0.08;;;;;;;5.60;79.24;98402.56;7357010;19;20014;-58
2022/11/22 09:13:27;;;;;;;0.03;0.03;;;;;;;5.56;79.25;98389.81;7355417;19;20587;-57
2022/11/22 09:15:52;;;;;;;0.00;0.00;;;;;;;5.68;78.99;98408.28;7357143;19;20023;-57
2022/11/22 09:18:18;;;;;;;0.00;0.00;;;;;;;5.73;79.38;98405.53;7354876;19;20878;-59
2022/11/22 09:20:43;;;;;;;0.00;0.00;;;;;;;5.76;79.08;98407.97;7355461;19;20031;-58
2022/11/22 09:23:09;;;;;;;0.00;0.00;;;;;;;5.79;78.99;98407.88;7355809;19;20018;-58
2022/11/22 09:25:34;;;;;;;0.00;0.00;;;;;;;5.84;79.40;98413.72;7356103;19;20011;-58
2022/11/22 09:28:03;;;;;;;0.05;0.05;;;;;;;5.86;79.01;98409.28;7353957;19;20031;-57
2022/11/22 09:30:29;;;;;;;0.00;0.00;;;;;;;5.92;79.09;98409.06;7355523;19;20543;-57
2022/11/22 09:32:54;;;;;;;0.00;0.00;;;;;;;5.97;79.06;98406.28;7356166;19;20086;-59
2022/11/22 09:35:20;;;;;;;0.00;0.00;;;;;;;5.89;79.18;98393.63;7354924;19;21777;-58
2022/11/22 09:37:46;;;;;;;0.10;0.10;;;;;;;6.06;79.30;98420.63;7356137;19;20018;-57
2022/11/22 09:40:12;;;;;;;0.00;0.00;;;;;;;6.10;79.00;98411.84;7356257;19;20027;-59
2022/11/22 09:43:09;;;;;;;0.10;0.10;;;;;;;6.15;78.91;98415.06;7353528;19;20029;-58
2022/11/22 09:46:06;;;;;;;0.00;0.00;;;;;;;6.21;78.96;98409.63;7250916;19;2004542;-57
2022/11/22 09:48:49;;;;;;;0.00;0.00;;;;;;;6.23;79.06;98419.03;7251073;19;2004220;-58
2022/11/22 09:51:20;;;;;;;0.00;0.00;;;;;;;6.28;79.09;98421.41;7354392;19;20015;-59
2022/11/22 09:54:06;;;;;;;0.00;0.00;;;;;;;6.32;79.15;98415.22;7353303;19;20021;-58
2022/11/22 09:56:33;;;;;;;0.00;0.00;;;;;;;6.28;79.22;98413.63;7353579;19;20454;-58
2022/11/22 09:59:12;;;;;;;0.00;0.00;;;;;;;6.39;79.70;98419.25;7350334;19;20026;-58
2022/11/22 10:01:41;;;;;;;0.10;0.10;;;;;;;6.40;79.13;98426.09;7351210;19;20010;-58
2022/11/22 10:04:27;;;;;;;0.00;0.00;;;;;;;6.45;79.41;98429.34;7352808;19;20033;-59
2022/11/22 10:06:57;;;;;;;0.00;0.00;;;;;;;6.46;78.87;98446.59;7353806;19;20070;-58
2022/11/22 10:09:38;;;;;;;0.10;0.10;;;;;;;6.47;78.89;98448.25;7354617;19;20566;-58
2022/11/22 10:12:24;;;;;;;0.00;0.00;;;;;;;6.54;79.36;98450.59;7354225;19;20047;-58
2022/11/22 10:15:03;;;;;;;0.00;0.00;;;;;;;6.48;79.27;98442.16;7354633;19;20035;-59
2022/11/22 10:17:47;;;;;;;0.10;0.10;;;;;;;6.59;79.05;98457.28;7357740;19;20385;-58
2022/11/22 10:20:15;;;;;;;0.00;0.00;;;;;;;6.64;79.59;98444.09;7361329;19;20014;-59
2022/11/22 10:22:41;;;;;;;0.00;0.00;;;;;;;6.66;79.67;98455.28;7358921;19;20018;-59
2022/11/22 10:25:26;;;;;;;0.00;0.00;;;;;;;6.74;79.45;98460.94;7361301;19;20438;-59
2022/11/22 10:27:57;;;;;;;0.00;0.00;;;;;;;6.75;79.38;98457.47;7360713;19;20018;-59
2022/11/22 10:30:24;;;;;;;0.00;0.00;;;;;;;6.79;79.61;98452.97;7361440;19;21015;-59
2022/11/22 10:32:52;;;;;;;0.10;0.10;;;;;;;6.82;79.57;98458.88;7360367;19;20055;-57
2022/11/22 10:35:37;;;;;;;0.00;0.00;;;;;;;6.89;79.32;98462.03;7360352;19;20007;-57
2022/11/22 10:38:03;;;;;;;0.00;0.00;;;;;;;6.91;79.45;98468.88;7359391;19;20636;-57
2022/11/22 10:40:45;;;;;;;0.00;0.00;;;;;;;6.96;79.48;98466.91;7360796;19;20029;-58
2022/11/22 10:43:28;;;;;;;0.08;0.08;;;;;;;7.03;79.49;98467.47;7356986;19;20021;-59
2022/11/22 10:46:19;;;;;;;0.00;0.00;;;;;;;7.07;79.39;98473.38;7360724;19;20021;-57
2022/11/22 10:49:22;;;;;;;0.00;0.00;;;;;;;7.13;79.58;98473.09;7257877;19;2004555;-58
2022/11/22 10:51:57;;;;;;;0.10;0.10;;;;;;;7.16;79.42;98471.22;7257218;19;2004454;-58
2022/11/22 10:54:53;;;;;;;0.00;0.00;;;;;;;7.23;79.90;98461.41;7360935;19;20022;-58
2022/11/22 10:57:37;;;;;;;0.10;0.10;;;;;;;7.26;79.90;98464.72;7258237;19;2004516;-58
2022/11/22 11:00:02;;;;;;;0.10;0.10;;;;;;;7.28;79.28;98459.44;7360611;19;20487;-58
2022/11/22 11:02:39;;;;;;;0.10;0.10;;;;;;;7.37;79.81;98459.03;7358239;19;20010;-56
2022/11/22 11:05:11;;;;;;;0.10;0.10;;;;;;;7.37;79.48;98459.03;7359623;19;20022;-56
2022/11/22 11:07:40;;;;;;;0.00;0.00;;;;;;;7.42;79.33;98464.00;7359464;19;20545;-58
2022/11/22 11:10:26;;;;;;;0.03;0.03;;;;;;;7.48;79.50;98467.16;7359025;19;20025;-57
2022/11/22 11:12:57;;;;;;;0.00;0.00;;;;;;;7.52;79.57;98471.31;7359349;19;20020;-59
2022/11/22 11:15:26;;;;;;;0.10;0.10;;;;;;;7.58;79.12;98474.53;7361022;19;20791;-58
2022/11/22 11:17:59;;;;;;;0.00;0.00;;;;;;;7.60;79.45;98470.94;7360253;19;20002;-57
2022/11/22 11:20:28;;;;;;;0.00;0.00;;;;;;;7.63;79.18;98473.41;7360146;19;20089;-58
2022/11/22 11:22:53;;;;;;;0.10;0.10;;;;;;;7.65;79.28;98470.72;7358609;19;20006;-58
2022/11/22 11:25:39;;;;;;;0.10;0.10;;;;;;;7.73;79.13;98468.63;7360994;19;20007;-59
2022/11/22 11:28:10;;;;;;;0.10;0.10;;;;;;;7.76;79.03;98473.69;7358837;19;19999;-58
2022/11/22 11:30:47;;;;;;;0.00;0.00;;;;;;;7.69;79.03;98457.53;7360035;19;20006;-58
2022/11/22 11:33:31;;;;;;;0.00;0.00;;;;;;;7.87;79.27;98481.81;7355892;19;20010;-58
2022/11/22 11:36:20;;;;;;;0.10;0.10;;;;;;;7.89;79.30;98477.38;7353993;19;20010;-58
2022/11/22 11:38:55;;;;;;;0.10;0.10;;;;;;;7.92;79.30;98485.03;7359755;19;20006;-59
2022/11/22 11:41:21;;;;;;;0.10;0.10;;;;;;;7.92;79.12;98479.00;7360361;19;20023;-59
2022/11/22 11:43:48;;;;;;;0.00;0.00;;;;;;;7.84;79.42;98466.38;7352830;19;20042;-59
2022/11/22 11:46:40;;;;;;;0.00;0.00;;;;;;;7.98;79.50;98483.91;7357152;19;20017;-59
2022/11/22 11:49:23;;;;;;;0.00;0.00;;;;;;;7.98;78.98;98491.72;7256262;19;2004486;-58
2022/11/22 11:51:54;;;;;;;0.00;0.00;;;;;;;7.97;79.25;98496.06;7356743;19;20014;-59
2022/11/22 11:54:22;;;;;;;0.00;0.00;;;;;;;7.97;79.16;98503.03;7359270;19;20576;-59
2022/11/22 11:56:51;;;;;;;0.00;0.00;;;;;;;7.94;78.84;98504.00;7358249;19;20786;-58
2022/11/22 11:59:41;;;;;;;0.10;0.10;;;;;;;7.91;79.04;98498.97;7359969;19;20632;-58
2022/11/22 12:02:15;;;;;;;0.10;0.10;;;;;;;7.88;79.19;98499.09;7353704;19;20009;-54